sensor_id;sensor_type;location;lat;lon;timestamp;temperature;humidity
81192;DHT22;70665;47.652;-2.730;2024-02-04T00:00:43;11.40;87.40
81192;DHT22;70665;47.652;-2.730;2024-02-04T00:03:08;11.50;88.90
81192;DHT22;70665;47.652;-2.730;2024-02-04T00:05:34;11.40;89.40
81192;DHT22;70665;47.652;-2.730;2024-02-04T00:08:00;11.40;89.60
81192;DHT22;70665;47.652;-2.730;2024-02-04T00:10:25;11.40;89.80
81192;DHT22;70665;47.652;-2.730;2024-02-04T00:12:52;11.50;89.60
81192;DHT22;70665;47.652;-2.730;2024-02-04T00:15:18;11.50;89.80
81192;DHT22;70665;47.652;-2.730;2024-02-04T00:17:44;11.60;89.90
81192;DHT22;70665;47.652;-2.730;2024-02-04T00:20:10;11.50;90.00
81192;DHT22;70665;47.652;-2.730;2024-02-04T00:22:36;11.60;90.10
81192;DHT22;70665;47.652;-2.730;2024-02-04T00:25:01;11.60;89.90
81192;DHT22;70665;47.652;-2.730;2024-02-04T00:27:33;11.60;89.90
81192;DHT22;70665;47.652;-2.730;2024-02-04T00:29:59;11.50;89.60
81192;DHT22;70665;47.652;-2.730;2024-02-04T00:32:25;11.50;89.50
81192;DHT22;70665;47.652;-2.730;2024-02-04T00:34:52;11.40;88.40
81192;DHT22;70665;47.652;-2.730;2024-02-04T00:37:18;11.40;88.30
81192;DHT22;70665;47.652;-2.730;2024-02-04T00:39:44;11.50;87.80
81192;DHT22;70665;47.652;-2.730;2024-02-04T00:42:09;11.40;87.70
81192;DHT22;70665;47.652;-2.730;2024-02-04T00:44:36;11.40;87.90
81192;DHT22;70665;47.652;-2.730;2024-02-04T00:47:01;11.50;87.80
81192;DHT22;70665;47.652;-2.730;2024-02-04T00:49:27;11.50;87.30
81192;DHT22;70665;47.652;-2.730;2024-02-04T00:51:53;11.50;87.50
81192;DHT22;70665;47.652;-2.730;2024-02-04T00:54:19;11.60;87.50
81192;DHT22;70665;47.652;-2.730;2024-02-04T00:56:44;11.50;87.20
81192;DHT22;70665;47.652;-2.730;2024-02-04T00:59:10;11.40;87.40
81192;DHT22;70665;47.652;-2.730;2024-02-04T01:01:37;11.50;87.10
81192;DHT22;70665;47.652;-2.730;2024-02-04T01:04:03;11.30;87.10
81192;DHT22;70665;47.652;-2.730;2024-02-04T01:06:28;11.30;87.40
81192;DHT22;70665;47.652;-2.730;2024-02-04T01:08:58;11.40;87.30
81192;DHT22;70665;47.652;-2.730;2024-02-04T01:11:24;11.40;87.10
81192;DHT22;70665;47.652;-2.730;2024-02-04T01:13:50;11.30;86.80
81192;DHT22;70665;47.652;-2.730;2024-02-04T01:16:15;11.20;86.50
81192;DHT22;70665;47.652;-2.730;2024-02-04T01:18:41;11.30;87.00
81192;DHT22;70665;47.652;-2.730;2024-02-04T01:21:07;11.30;86.80
81192;DHT22;70665;47.652;-2.730;2024-02-04T01:23:34;11.30;86.80
81192;DHT22;70665;47.652;-2.730;2024-02-04T01:26:00;11.50;86.80
81192;DHT22;70665;47.652;-2.730;2024-02-04T01:28:26;11.40;86.70
81192;DHT22;70665;47.652;-2.730;2024-02-04T01:30:51;11.40;86.60
81192;DHT22;70665;47.652;-2.730;2024-02-04T01:33:17;11.50;86.50
81192;DHT22;70665;47.652;-2.730;2024-02-04T01:35:43;11.50;86.60
81192;DHT22;70665;47.652;-2.730;2024-02-04T01:38:08;11.60;86.30
81192;DHT22;70665;47.652;-2.730;2024-02-04T01:40:34;11.50;86.10
81192;DHT22;70665;47.652;-2.730;2024-02-04T01:42:59;11.50;85.60
81192;DHT22;70665;47.652;-2.730;2024-02-04T01:45:25;11.60;85.30
81192;DHT22;70665;47.652;-2.730;2024-02-04T01:47:51;11.50;85.30
81192;DHT22;70665;47.652;-2.730;2024-02-04T01:50:18;11.50;85.30
81192;DHT22;70665;47.652;-2.730;2024-02-04T01:52:44;11.40;85.10
81192;DHT22;70665;47.652;-2.730;2024-02-04T01:55:10;11.40;84.90
81192;DHT22;70665;47.652;-2.730;2024-02-04T01:57:37;11.50;85.30
81192;DHT22;70665;47.652;-2.730;2024-02-04T02:00:03;11.50;85.20
81192;DHT22;70665;47.652;-2.730;2024-02-04T02:02:30;11.50;85.00
81192;DHT22;70665;47.652;-2.730;2024-02-04T02:04:57;11.40;84.80
81192;DHT22;70665;47.652;-2.730;2024-02-04T02:07:23;11.50;84.70
81192;DHT22;70665;47.652;-2.730;2024-02-04T02:09:53;11.50;85.10
81192;DHT22;70665;47.652;-2.730;2024-02-04T02:12:21;11.50;84.90
81192;DHT22;70665;47.652;-2.730;2024-02-04T02:14:56;11.40;85.20
81192;DHT22;70665;47.652;-2.730;2024-02-04T02:17:31;11.50;84.90
81192;DHT22;70665;47.652;-2.730;2024-02-04T02:20:10;11.50;84.80
81192;DHT22;70665;47.652;-2.730;2024-02-04T02:22:56;11.40;84.70
81192;DHT22;70665;47.652;-2.730;2024-02-04T02:25:27;11.50;84.90
81192;DHT22;70665;47.652;-2.730;2024-02-04T02:27:52;11.40;85.00
81192;DHT22;70665;47.652;-2.730;2024-02-04T02:30:18;11.40;85.40
81192;DHT22;70665;47.652;-2.730;2024-02-04T02:32:45;11.40;85.20
81192;DHT22;70665;47.652;-2.730;2024-02-04T02:35:15;11.40;85.20
81192;DHT22;70665;47.652;-2.730;2024-02-04T02:37:43;11.40;84.90
81192;DHT22;70665;47.652;-2.730;2024-02-04T02:40:37;11.40;85.00
81192;DHT22;70665;47.652;-2.730;2024-02-04T02:43:04;11.40;84.70
81192;DHT22;70665;47.652;-2.730;2024-02-04T02:45:31;11.30;84.90
81192;DHT22;70665;47.652;-2.730;2024-02-04T02:47:58;11.30;84.80
81192;DHT22;70665;47.652;-2.730;2024-02-04T02:50:23;11.30;84.80
81192;DHT22;70665;47.652;-2.730;2024-02-04T02:52:49;11.40;84.50
81192;DHT22;70665;47.652;-2.730;2024-02-04T02:55:15;11.40;84.20
81192;DHT22;70665;47.652;-2.730;2024-02-04T02:57:41;11.30;84.10
81192;DHT22;70665;47.652;-2.730;2024-02-04T03:00:07;11.40;84.00
81192;DHT22;70665;47.652;-2.730;2024-02-04T03:02:33;11.40;84.10
81192;DHT22;70665;47.652;-2.730;2024-02-04T03:04:58;11.40;84.30
81192;DHT22;70665;47.652;-2.730;2024-02-04T03:07:24;11.30;84.10
81192;DHT22;70665;47.652;-2.730;2024-02-04T03:09:51;11.30;83.40
81192;DHT22;70665;47.652;-2.730;2024-02-04T03:12:17;11.30;83.60
81192;DHT22;70665;47.652;-2.730;2024-02-04T03:14:42;11.40;83.70
81192;DHT22;70665;47.652;-2.730;2024-02-04T03:17:08;11.30;83.30
81192;DHT22;70665;47.652;-2.730;2024-02-04T03:19:33;11.30;83.10
81192;DHT22;70665;47.652;-2.730;2024-02-04T03:21:59;11.20;83.10
81192;DHT22;70665;47.652;-2.730;2024-02-04T03:24:25;11.10;83.40
81192;DHT22;70665;47.652;-2.730;2024-02-04T03:26:50;11.10;83.70
81192;DHT22;70665;47.652;-2.730;2024-02-04T03:29:16;11.10;83.40
81192;DHT22;70665;47.652;-2.730;2024-02-04T03:31:42;11.00;83.70
81192;DHT22;70665;47.652;-2.730;2024-02-04T03:34:07;11.10;83.50
81192;DHT22;70665;47.652;-2.730;2024-02-04T03:36:33;11.10;83.20
81192;DHT22;70665;47.652;-2.730;2024-02-04T03:38:58;11.20;83.00
81192;DHT22;70665;47.652;-2.730;2024-02-04T03:41:24;11.20;83.50
81192;DHT22;70665;47.652;-2.730;2024-02-04T03:43:50;11.10;83.50
81192;DHT22;70665;47.652;-2.730;2024-02-04T03:46:16;11.20;83.40
81192;DHT22;70665;47.652;-2.730;2024-02-04T03:48:43;11.20;83.70
81192;DHT22;70665;47.652;-2.730;2024-02-04T03:51:15;11.20;83.30
81192;DHT22;70665;47.652;-2.730;2024-02-04T03:53:41;11.20;82.70
81192;DHT22;70665;47.652;-2.730;2024-02-04T03:56:06;11.20;82.70
81192;DHT22;70665;47.652;-2.730;2024-02-04T03:58:33;11.20;83.30
81192;DHT22;70665;47.652;-2.730;2024-02-04T04:00:58;11.20;83.70
81192;DHT22;70665;47.652;-2.730;2024-02-04T04:03:25;11.30;83.30
81192;DHT22;70665;47.652;-2.730;2024-02-04T04:05:53;11.30;83.20
81192;DHT22;70665;47.652;-2.730;2024-02-04T04:08:18;11.30;83.20
81192;DHT22;70665;47.652;-2.730;2024-02-04T04:10:45;11.40;82.90
81192;DHT22;70665;47.652;-2.730;2024-02-04T04:13:10;11.40;82.60
81192;DHT22;70665;47.652;-2.730;2024-02-04T04:15:37;11.30;83.10
81192;DHT22;70665;47.652;-2.730;2024-02-04T04:18:03;11.30;83.40
81192;DHT22;70665;47.652;-2.730;2024-02-04T04:20:29;11.40;83.30
81192;DHT22;70665;47.652;-2.730;2024-02-04T04:22:54;11.30;82.80
81192;DHT22;70665;47.652;-2.730;2024-02-04T04:25:20;11.20;83.10
81192;DHT22;70665;47.652;-2.730;2024-02-04T04:27:46;11.20;83.10
81192;DHT22;70665;47.652;-2.730;2024-02-04T04:30:11;11.10;83.80
81192;DHT22;70665;47.652;-2.730;2024-02-04T04:32:37;11.10;83.00
81192;DHT22;70665;47.652;-2.730;2024-02-04T04:35:03;11.10;83.40
81192;DHT22;70665;47.652;-2.730;2024-02-04T04:37:29;11.10;83.80
81192;DHT22;70665;47.652;-2.730;2024-02-04T04:39:54;11.20;83.60
81192;DHT22;70665;47.652;-2.730;2024-02-04T04:42:20;11.20;83.80
81192;DHT22;70665;47.652;-2.730;2024-02-04T04:44:46;11.30;83.60
81192;DHT22;70665;47.652;-2.730;2024-02-04T04:47:12;11.30;83.30
81192;DHT22;70665;47.652;-2.730;2024-02-04T04:49:37;11.30;83.60
81192;DHT22;70665;47.652;-2.730;2024-02-04T04:52:03;11.30;83.60
81192;DHT22;70665;47.652;-2.730;2024-02-04T04:54:29;11.30;83.20
81192;DHT22;70665;47.652;-2.730;2024-02-04T04:56:55;11.40;83.40
81192;DHT22;70665;47.652;-2.730;2024-02-04T04:59:20;11.30;83.20
81192;DHT22;70665;47.652;-2.730;2024-02-04T05:01:49;11.40;83.50
81192;DHT22;70665;47.652;-2.730;2024-02-04T05:04:16;11.30;83.40
81192;DHT22;70665;47.652;-2.730;2024-02-04T05:06:42;11.40;83.70
81192;DHT22;70665;47.652;-2.730;2024-02-04T05:09:07;11.40;83.60
81192;DHT22;70665;47.652;-2.730;2024-02-04T05:11:34;11.40;83.50
81192;DHT22;70665;47.652;-2.730;2024-02-04T05:14:00;11.40;83.10
81192;DHT22;70665;47.652;-2.730;2024-02-04T05:16:25;11.40;83.20
81192;DHT22;70665;47.652;-2.730;2024-02-04T05:18:51;11.40;83.00
81192;DHT22;70665;47.652;-2.730;2024-02-04T05:21:17;11.40;83.50
81192;DHT22;70665;47.652;-2.730;2024-02-04T05:23:42;11.40;83.10
81192;DHT22;70665;47.652;-2.730;2024-02-04T05:26:08;11.50;82.80
81192;DHT22;70665;47.652;-2.730;2024-02-04T05:28:34;11.50;83.30
81192;DHT22;70665;47.652;-2.730;2024-02-04T05:31:01;11.40;83.10
81192;DHT22;70665;47.652;-2.730;2024-02-04T05:33:27;11.30;82.50
81192;DHT22;70665;47.652;-2.730;2024-02-04T05:35:52;11.30;82.90
81192;DHT22;70665;47.652;-2.730;2024-02-04T05:38:18;11.20;83.20
81192;DHT22;70665;47.652;-2.730;2024-02-04T05:40:43;11.20;83.50
81192;DHT22;70665;47.652;-2.730;2024-02-04T05:43:09;11.30;83.90
81192;DHT22;70665;47.652;-2.730;2024-02-04T05:45:37;11.30;83.70
81192;DHT22;70665;47.652;-2.730;2024-02-04T05:48:04;11.40;83.70
81192;DHT22;70665;47.652;-2.730;2024-02-04T05:50:30;11.50;83.80
81192;DHT22;70665;47.652;-2.730;2024-02-04T05:52:56;11.40;83.10
81192;DHT22;70665;47.652;-2.730;2024-02-04T05:55:22;11.40;82.80
81192;DHT22;70665;47.652;-2.730;2024-02-04T05:57:47;11.40;83.10
81192;DHT22;70665;47.652;-2.730;2024-02-04T06:00:13;11.40;83.20
81192;DHT22;70665;47.652;-2.730;2024-02-04T06:02:39;11.50;83.10
81192;DHT22;70665;47.652;-2.730;2024-02-04T06:05:05;11.40;83.10
81192;DHT22;70665;47.652;-2.730;2024-02-04T06:07:31;11.40;83.10
81192;DHT22;70665;47.652;-2.730;2024-02-04T06:09:57;11.40;83.00
81192;DHT22;70665;47.652;-2.730;2024-02-04T06:12:24;11.40;83.10
81192;DHT22;70665;47.652;-2.730;2024-02-04T06:14:50;11.50;83.40
81192;DHT22;70665;47.652;-2.730;2024-02-04T06:17:16;11.40;83.50
81192;DHT22;70665;47.652;-2.730;2024-02-04T06:19:41;11.50;83.30
81192;DHT22;70665;47.652;-2.730;2024-02-04T06:22:07;11.50;83.30
81192;DHT22;70665;47.652;-2.730;2024-02-04T06:24:33;11.50;83.70
81192;DHT22;70665;47.652;-2.730;2024-02-04T06:26:58;11.40;83.50
81192;DHT22;70665;47.652;-2.730;2024-02-04T06:29:24;11.40;83.40
81192;DHT22;70665;47.652;-2.730;2024-02-04T06:31:50;11.50;83.50
81192;DHT22;70665;47.652;-2.730;2024-02-04T06:34:15;11.40;83.80
81192;DHT22;70665;47.652;-2.730;2024-02-04T06:36:44;11.50;83.60
81192;DHT22;70665;47.652;-2.730;2024-02-04T06:39:13;11.50;83.50
81192;DHT22;70665;47.652;-2.730;2024-02-04T06:41:38;11.50;82.80
81192;DHT22;70665;47.652;-2.730;2024-02-04T06:44:04;11.40;83.30
81192;DHT22;70665;47.652;-2.730;2024-02-04T06:46:30;11.40;83.20
81192;DHT22;70665;47.652;-2.730;2024-02-04T06:48:56;11.40;83.50
81192;DHT22;70665;47.652;-2.730;2024-02-04T06:51:22;11.50;83.10
81192;DHT22;70665;47.652;-2.730;2024-02-04T06:53:48;11.40;83.20
81192;DHT22;70665;47.652;-2.730;2024-02-04T06:56:13;11.50;83.00
81192;DHT22;70665;47.652;-2.730;2024-02-04T06:58:40;11.50;82.40
81192;DHT22;70665;47.652;-2.730;2024-02-04T07:01:06;11.40;82.80
81192;DHT22;70665;47.652;-2.730;2024-02-04T07:03:31;11.50;83.00
81192;DHT22;70665;47.652;-2.730;2024-02-04T07:05:58;11.40;82.40
81192;DHT22;70665;47.652;-2.730;2024-02-04T07:08:24;11.50;82.90
81192;DHT22;70665;47.652;-2.730;2024-02-04T07:10:50;11.60;82.70
81192;DHT22;70665;47.652;-2.730;2024-02-04T07:13:16;11.50;82.80
81192;DHT22;70665;47.652;-2.730;2024-02-04T07:15:42;11.60;82.70
81192;DHT22;70665;47.652;-2.730;2024-02-04T07:18:07;11.50;82.30
81192;DHT22;70665;47.652;-2.730;2024-02-04T07:20:33;11.50;81.40
81192;DHT22;70665;47.652;-2.730;2024-02-04T07:22:59;11.40;81.80
81192;DHT22;70665;47.652;-2.730;2024-02-04T07:25:24;11.20;81.70
81192;DHT22;70665;47.652;-2.730;2024-02-04T07:27:50;11.20;81.90
81192;DHT22;70665;47.652;-2.730;2024-02-04T07:30:16;11.20;81.50
81192;DHT22;70665;47.652;-2.730;2024-02-04T07:32:42;11.10;81.60
81192;DHT22;70665;47.652;-2.730;2024-02-04T07:35:08;11.20;81.40
81192;DHT22;70665;47.652;-2.730;2024-02-04T07:37:34;11.20;81.80
81192;DHT22;70665;47.652;-2.730;2024-02-04T07:40:00;11.10;81.70
81192;DHT22;70665;47.652;-2.730;2024-02-04T07:42:26;11.10;81.00
81192;DHT22;70665;47.652;-2.730;2024-02-04T07:44:53;11.10;80.80
81192;DHT22;70665;47.652;-2.730;2024-02-04T07:47:18;11.10;80.60
81192;DHT22;70665;47.652;-2.730;2024-02-04T07:49:47;11.10;81.00
81192;DHT22;70665;47.652;-2.730;2024-02-04T07:52:12;11.10;81.50
81192;DHT22;70665;47.652;-2.730;2024-02-04T07:54:38;11.10;81.50
81192;DHT22;70665;47.652;-2.730;2024-02-04T07:57:04;11.30;81.10
81192;DHT22;70665;47.652;-2.730;2024-02-04T07:59:30;11.40;81.10
81192;DHT22;70665;47.652;-2.730;2024-02-04T08:01:55;11.40;79.30
81192;DHT22;70665;47.652;-2.730;2024-02-04T08:04:21;11.40;79.60
81192;DHT22;70665;47.652;-2.730;2024-02-04T08:06:46;11.50;80.00
81192;DHT22;70665;47.652;-2.730;2024-02-04T08:09:12;11.40;80.00
81192;DHT22;70665;47.652;-2.730;2024-02-04T08:11:38;11.50;80.10
81192;DHT22;70665;47.652;-2.730;2024-02-04T08:14:03;11.60;80.10
81192;DHT22;70665;47.652;-2.730;2024-02-04T08:16:29;11.60;79.30
81192;DHT22;70665;47.652;-2.730;2024-02-04T08:18:55;11.60;79.60
81192;DHT22;70665;47.652;-2.730;2024-02-04T08:21:21;11.60;79.50
81192;DHT22;70665;47.652;-2.730;2024-02-04T08:23:47;11.50;79.00
81192;DHT22;70665;47.652;-2.730;2024-02-04T08:26:12;11.40;79.60
81192;DHT22;70665;47.652;-2.730;2024-02-04T08:28:38;11.40;79.60
81192;DHT22;70665;47.652;-2.730;2024-02-04T08:31:04;11.50;80.00
81192;DHT22;70665;47.652;-2.730;2024-02-04T08:33:29;11.60;79.60
81192;DHT22;70665;47.652;-2.730;2024-02-04T08:35:55;11.70;79.60
81192;DHT22;70665;47.652;-2.730;2024-02-04T08:38:20;11.70;79.40
81192;DHT22;70665;47.652;-2.730;2024-02-04T08:40:46;11.80;79.50
81192;DHT22;70665;47.652;-2.730;2024-02-04T08:43:12;12.00;78.60
81192;DHT22;70665;47.652;-2.730;2024-02-04T08:45:38;12.00;78.80
81192;DHT22;70665;47.652;-2.730;2024-02-04T08:48:03;12.10;78.60
81192;DHT22;70665;47.652;-2.730;2024-02-04T08:50:29;12.00;78.40
81192;DHT22;70665;47.652;-2.730;2024-02-04T08:52:55;12.10;78.50
81192;DHT22;70665;47.652;-2.730;2024-02-04T08:55:21;12.20;78.40
81192;DHT22;70665;47.652;-2.730;2024-02-04T08:57:46;12.20;78.40
81192;DHT22;70665;47.652;-2.730;2024-02-04T09:00:14;12.30;78.40
81192;DHT22;70665;47.652;-2.730;2024-02-04T09:02:40;12.20;78.40
81192;DHT22;70665;47.652;-2.730;2024-02-04T09:05:06;12.40;78.40
81192;DHT22;70665;47.652;-2.730;2024-02-04T09:07:32;12.50;78.40
81192;DHT22;70665;47.652;-2.730;2024-02-04T09:09:57;12.40;77.90
81192;DHT22;70665;47.652;-2.730;2024-02-04T09:12:23;12.50;78.30
81192;DHT22;70665;47.652;-2.730;2024-02-04T09:14:48;12.50;78.40
81192;DHT22;70665;47.652;-2.730;2024-02-04T09:17:14;12.50;77.80
81192;DHT22;70665;47.652;-2.730;2024-02-04T09:19:40;12.40;77.00
81192;DHT22;70665;47.652;-2.730;2024-02-04T09:22:05;12.20;77.10
81192;DHT22;70665;47.652;-2.730;2024-02-04T09:24:31;12.20;77.10
81192;DHT22;70665;47.652;-2.730;2024-02-04T09:26:57;12.20;77.70
81192;DHT22;70665;47.652;-2.730;2024-02-04T09:29:23;12.20;77.50
81192;DHT22;70665;47.652;-2.730;2024-02-04T09:31:48;12.40;77.80
81192;DHT22;70665;47.652;-2.730;2024-02-04T09:34:18;12.60;77.90
81192;DHT22;70665;47.652;-2.730;2024-02-04T09:36:44;12.80;77.70
81192;DHT22;70665;47.652;-2.730;2024-02-04T09:39:10;12.70;77.20
81192;DHT22;70665;47.652;-2.730;2024-02-04T09:41:37;12.80;76.80
81192;DHT22;70665;47.652;-2.730;2024-02-04T09:44:04;12.70;77.40
81192;DHT22;70665;47.652;-2.730;2024-02-04T09:46:30;12.80;77.20
81192;DHT22;70665;47.652;-2.730;2024-02-04T09:48:56;12.60;76.20
81192;DHT22;70665;47.652;-2.730;2024-02-04T09:51:22;12.70;77.00
81192;DHT22;70665;47.652;-2.730;2024-02-04T09:53:51;12.70;76.50
81192;DHT22;70665;47.652;-2.730;2024-02-04T09:56:17;12.80;77.10
81192;DHT22;70665;47.652;-2.730;2024-02-04T09:58:43;12.90;77.50
81192;DHT22;70665;47.652;-2.730;2024-02-04T10:01:10;12.90;76.90
81192;DHT22;70665;47.652;-2.730;2024-02-04T10:03:37;13.00;76.50
81192;DHT22;70665;47.652;-2.730;2024-02-04T10:06:03;13.00;76.70
81192;DHT22;70665;47.652;-2.730;2024-02-04T10:08:28;13.00;76.60
81192;DHT22;70665;47.652;-2.730;2024-02-04T10:10:54;13.10;76.70
81192;DHT22;70665;47.652;-2.730;2024-02-04T10:13:20;13.10;76.40
81192;DHT22;70665;47.652;-2.730;2024-02-04T10:15:47;13.10;77.10
81192;DHT22;70665;47.652;-2.730;2024-02-04T10:18:13;13.10;76.80
81192;DHT22;70665;47.652;-2.730;2024-02-04T10:20:39;13.20;76.10
81192;DHT22;70665;47.652;-2.730;2024-02-04T10:23:04;13.20;76.90
81192;DHT22;70665;47.652;-2.730;2024-02-04T10:25:30;13.20;76.50
81192;DHT22;70665;47.652;-2.730;2024-02-04T10:27:56;13.30;75.70
81192;DHT22;70665;47.652;-2.730;2024-02-04T10:30:23;13.10;75.50
81192;DHT22;70665;47.652;-2.730;2024-02-04T10:32:51;13.10;75.80
81192;DHT22;70665;47.652;-2.730;2024-02-04T10:35:17;13.10;75.90
81192;DHT22;70665;47.652;-2.730;2024-02-04T10:37:46;13.00;75.30
81192;DHT22;70665;47.652;-2.730;2024-02-04T10:40:11;13.00;76.00
81192;DHT22;70665;47.652;-2.730;2024-02-04T10:42:38;13.30;76.40
81192;DHT22;70665;47.652;-2.730;2024-02-04T10:45:08;13.30;76.00
81192;DHT22;70665;47.652;-2.730;2024-02-04T10:47:37;13.20;75.40
81192;DHT22;70665;47.652;-2.730;2024-02-04T10:50:04;13.30;75.60
81192;DHT22;70665;47.652;-2.730;2024-02-04T10:52:36;13.30;75.40
81192;DHT22;70665;47.652;-2.730;2024-02-04T10:55:10;13.40;75.30
81192;DHT22;70665;47.652;-2.730;2024-02-04T10:57:37;13.40;75.20
81192;DHT22;70665;47.652;-2.730;2024-02-04T11:00:03;13.40;75.20
81192;DHT22;70665;47.652;-2.730;2024-02-04T11:02:34;13.20;75.10
81192;DHT22;70665;47.652;-2.730;2024-02-04T11:05:03;13.10;75.70
81192;DHT22;70665;47.652;-2.730;2024-02-04T11:07:33;13.20;76.10
81192;DHT22;70665;47.652;-2.730;2024-02-04T11:10:02;13.20;75.20
81192;DHT22;70665;47.652;-2.730;2024-02-04T11:12:30;13.30;76.20
81192;DHT22;70665;47.652;-2.730;2024-02-04T11:15:01;13.30;76.00
81192;DHT22;70665;47.652;-2.730;2024-02-04T11:22:47;13.30;75.00
81192;DHT22;70665;47.652;-2.730;2024-02-04T11:27:52;13.30;74.30
81192;DHT22;70665;47.652;-2.730;2024-02-04T11:30:18;13.20;75.50
81192;DHT22;70665;47.652;-2.730;2024-02-04T11:32:45;13.20;74.90
81192;DHT22;70665;47.652;-2.730;2024-02-04T11:35:12;13.40;75.50
81192;DHT22;70665;47.652;-2.730;2024-02-04T11:37:38;13.40;75.40
81192;DHT22;70665;47.652;-2.730;2024-02-04T11:40:07;13.30;73.50
81192;DHT22;70665;47.652;-2.730;2024-02-04T11:42:33;13.30;74.80
81192;DHT22;70665;47.652;-2.730;2024-02-04T11:45:12;13.30;73.60
81192;DHT22;70665;47.652;-2.730;2024-02-04T11:47:39;13.40;74.80
81192;DHT22;70665;47.652;-2.730;2024-02-04T11:50:05;13.50;74.90
81192;DHT22;70665;47.652;-2.730;2024-02-04T11:52:31;13.50;74.30
81192;DHT22;70665;47.652;-2.730;2024-02-04T11:54:56;13.60;74.00
81192;DHT22;70665;47.652;-2.730;2024-02-04T11:57:23;13.50;74.70
81192;DHT22;70665;47.652;-2.730;2024-02-04T11:59:50;13.40;75.30
81192;DHT22;70665;47.652;-2.730;2024-02-04T12:02:16;13.50;75.40
81192;DHT22;70665;47.652;-2.730;2024-02-04T12:04:44;13.60;74.30
81192;DHT22;70665;47.652;-2.730;2024-02-04T12:07:10;13.50;74.30
81192;DHT22;70665;47.652;-2.730;2024-02-04T12:09:36;13.40;73.30
81192;DHT22;70665;47.652;-2.730;2024-02-04T12:12:04;13.50;75.00
81192;DHT22;70665;47.652;-2.730;2024-02-04T12:14:30;13.50;75.30
81192;DHT22;70665;47.652;-2.730;2024-02-04T12:16:56;13.50;73.80
81192;DHT22;70665;47.652;-2.730;2024-02-04T12:19:23;13.50;74.80
81192;DHT22;70665;47.652;-2.730;2024-02-04T12:21:49;13.40;74.90
81192;DHT22;70665;47.652;-2.730;2024-02-04T12:24:15;13.40;74.00
81192;DHT22;70665;47.652;-2.730;2024-02-04T12:26:41;13.20;72.40
81192;DHT22;70665;47.652;-2.730;2024-02-04T12:29:07;13.20;73.10
81192;DHT22;70665;47.652;-2.730;2024-02-04T12:31:32;13.20;74.30
81192;DHT22;70665;47.652;-2.730;2024-02-04T12:33:59;13.10;74.20
81192;DHT22;70665;47.652;-2.730;2024-02-04T12:36:27;13.20;74.50
81192;DHT22;70665;47.652;-2.730;2024-02-04T12:38:58;13.30;73.30
81192;DHT22;70665;47.652;-2.730;2024-02-04T12:41:25;13.50;74.90
81192;DHT22;70665;47.652;-2.730;2024-02-04T12:43:57;13.40;72.70
81192;DHT22;70665;47.652;-2.730;2024-02-04T12:46:24;13.40;72.20
81192;DHT22;70665;47.652;-2.730;2024-02-04T12:48:57;13.20;73.00
81192;DHT22;70665;47.652;-2.730;2024-02-04T12:51:30;13.30;73.80
81192;DHT22;70665;47.652;-2.730;2024-02-04T12:54:05;13.50;73.90
81192;DHT22;70665;47.652;-2.730;2024-02-04T12:59:08;13.50;73.60
81192;DHT22;70665;47.652;-2.730;2024-02-04T13:01:36;13.60;72.00
81192;DHT22;70665;47.652;-2.730;2024-02-04T13:04:02;13.50;72.70
81192;DHT22;70665;47.652;-2.730;2024-02-04T13:06:27;13.40;72.60
81192;DHT22;70665;47.652;-2.730;2024-02-04T13:08:57;13.40;73.60
81192;DHT22;70665;47.652;-2.730;2024-02-04T13:11:25;13.40;72.30
81192;DHT22;70665;47.652;-2.730;2024-02-04T13:13:51;13.50;73.60
81192;DHT22;70665;47.652;-2.730;2024-02-04T13:16:17;13.50;73.40
81192;DHT22;70665;47.652;-2.730;2024-02-04T13:18:53;13.40;73.40
81192;DHT22;70665;47.652;-2.730;2024-02-04T13:21:19;13.60;73.10
81192;DHT22;70665;47.652;-2.730;2024-02-04T13:23:50;13.60;73.60
81192;DHT22;70665;47.652;-2.730;2024-02-04T13:26:16;13.70;72.50
81192;DHT22;70665;47.652;-2.730;2024-02-04T13:28:43;13.50;73.20
81192;DHT22;70665;47.652;-2.730;2024-02-04T13:31:08;13.50;72.70
81192;DHT22;70665;47.652;-2.730;2024-02-04T13:33:34;13.40;72.20
81192;DHT22;70665;47.652;-2.730;2024-02-04T13:35:59;13.40;73.20
81192;DHT22;70665;47.652;-2.730;2024-02-04T13:38:26;13.50;74.00
81192;DHT22;70665;47.652;-2.730;2024-02-04T13:40:51;13.40;73.90
81192;DHT22;70665;47.652;-2.730;2024-02-04T13:43:17;13.50;72.90
81192;DHT22;70665;47.652;-2.730;2024-02-04T13:45:42;13.50;73.20
81192;DHT22;70665;47.652;-2.730;2024-02-04T13:48:08;13.50;73.80
81192;DHT22;70665;47.652;-2.730;2024-02-04T13:50:33;13.20;73.60
81192;DHT22;70665;47.652;-2.730;2024-02-04T13:53:01;13.20;74.10
81192;DHT22;70665;47.652;-2.730;2024-02-04T13:55:26;13.20;74.10
81192;DHT22;70665;47.652;-2.730;2024-02-04T13:57:52;13.10;74.10
81192;DHT22;70665;47.652;-2.730;2024-02-04T14:00:17;13.10;75.50
81192;DHT22;70665;47.652;-2.730;2024-02-04T14:02:43;13.10;74.00
81192;DHT22;70665;47.652;-2.730;2024-02-04T14:05:09;13.20;75.10
81192;DHT22;70665;47.652;-2.730;2024-02-04T14:07:34;13.10;75.10
81192;DHT22;70665;47.652;-2.730;2024-02-04T14:10:00;13.20;75.30
81192;DHT22;70665;47.652;-2.730;2024-02-04T14:12:25;13.20;75.60
81192;DHT22;70665;47.652;-2.730;2024-02-04T14:14:51;13.20;74.80
81192;DHT22;70665;47.652;-2.730;2024-02-04T14:17:17;13.20;75.30
81192;DHT22;70665;47.652;-2.730;2024-02-04T14:19:42;13.20;75.40
81192;DHT22;70665;47.652;-2.730;2024-02-04T14:22:10;13.20;75.60
81192;DHT22;70665;47.652;-2.730;2024-02-04T14:24:37;13.30;75.40
81192;DHT22;70665;47.652;-2.730;2024-02-04T14:27:03;13.20;75.20
81192;DHT22;70665;47.652;-2.730;2024-02-04T14:29:28;13.10;75.50
81192;DHT22;70665;47.652;-2.730;2024-02-04T14:31:54;13.10;75.40
81192;DHT22;70665;47.652;-2.730;2024-02-04T14:34:21;13.10;75.90
81192;DHT22;70665;47.652;-2.730;2024-02-04T14:36:46;13.10;74.60
81192;DHT22;70665;47.652;-2.730;2024-02-04T14:39:12;13.10;75.50
81192;DHT22;70665;47.652;-2.730;2024-02-04T14:41:38;13.10;75.90
81192;DHT22;70665;47.652;-2.730;2024-02-04T14:44:03;13.00;76.40
81192;DHT22;70665;47.652;-2.730;2024-02-04T14:46:29;13.00;76.50
81192;DHT22;70665;47.652;-2.730;2024-02-04T14:48:55;12.80;75.80
81192;DHT22;70665;47.652;-2.730;2024-02-04T14:51:20;12.90;76.80
81192;DHT22;70665;47.652;-2.730;2024-02-04T14:53:46;12.80;76.70
81192;DHT22;70665;47.652;-2.730;2024-02-04T14:56:11;12.90;76.60
81192;DHT22;70665;47.652;-2.730;2024-02-04T14:58:37;13.00;77.10
81192;DHT22;70665;47.652;-2.730;2024-02-04T15:01:03;13.00;76.50
81192;DHT22;70665;47.652;-2.730;2024-02-04T15:03:28;13.00;76.80
81192;DHT22;70665;47.652;-2.730;2024-02-04T15:05:54;13.00;76.90
81192;DHT22;70665;47.652;-2.730;2024-02-04T15:08:20;13.10;77.00
81192;DHT22;70665;47.652;-2.730;2024-02-04T15:10:46;13.00;76.40
81192;DHT22;70665;47.652;-2.730;2024-02-04T15:13:12;13.00;76.70
81192;DHT22;70665;47.652;-2.730;2024-02-04T15:15:38;12.90;77.00
81192;DHT22;70665;47.652;-2.730;2024-02-04T15:18:05;12.90;76.70
81192;DHT22;70665;47.652;-2.730;2024-02-04T15:20:31;12.90;77.00